sensor_id;sensor_type;location;lat;lon;timestamp;temperature;humidity
19906;DHT22;10115;50.906;4.438;2022-12-07T00:01:15;5.00;99.90
19906;DHT22;10115;50.906;4.438;2022-12-07T00:03:42;5.00;99.90
19906;DHT22;10115;50.906;4.438;2022-12-07T00:06:10;4.90;99.90
19906;DHT22;10115;50.906;4.438;2022-12-07T00:08:36;4.80;99.90
19906;DHT22;10115;50.906;4.438;2022-12-07T00:11:07;4.80;99.90
19906;DHT22;10115;50.906;4.438;2022-12-07T00:13:34;4.70;99.90
19906;DHT22;10115;50.906;4.438;2022-12-07T00:16:09;4.70;99.90
19906;DHT22;10115;50.906;4.438;2022-12-07T00:18:35;4.70;99.90
19906;DHT22;10115;50.906;4.438;2022-12-07T00:21:03;4.60;99.90
19906;DHT22;10115;50.906;4.438;2022-12-07T00:23:29;4.60;99.90
19906;DHT22;10115;50.906;4.438;2022-12-07T00:25:55;4.50;99.90
19906;DHT22;10115;50.906;4.438;2022-12-07T00:28:21;4.50;99.90
19906;DHT22;10115;50.906;4.438;2022-12-07T00:30:46;4.50;99.90
19906;DHT22;10115;50.906;4.438;2022-12-07T00:33:12;4.50;99.90
19906;DHT22;10115;50.906;4.438;2022-12-07T00:35:38;4.50;99.90
19906;DHT22;10115;50.906;4.438;2022-12-07T00:38:03;4.50;99.90
19906;DHT22;10115;50.906;4.438;2022-12-07T00:40:29;4.40;99.90
19906;DHT22;10115;50.906;4.438;2022-12-07T00:42:54;4.40;99.90
19906;DHT22;10115;50.906;4.438;2022-12-07T00:45:20;4.40;99.90
19906;DHT22;10115;50.906;4.438;2022-12-07T00:47:46;4.30;99.90
19906;DHT22;10115;50.906;4.438;2022-12-07T00:50:11;4.30;99.90
19906;DHT22;10115;50.906;4.438;2022-12-07T00:52:37;4.30;99.90
19906;DHT22;10115;50.906;4.438;2022-12-07T00:55:03;4.20;99.90
19906;DHT22;10115;50.906;4.438;2022-12-07T00:57:30;4.20;99.90
19906;DHT22;10115;50.906;4.438;2022-12-07T00:59:56;4.20;99.90
19906;DHT22;10115;50.906;4.438;2022-12-07T01:02:23;4.20;99.90
19906;DHT22;10115;50.906;4.438;2022-12-07T01:04:49;4.20;99.90
19906;DHT22;10115;50.906;4.438;2022-12-07T01:07:14;4.20;99.90
19906;DHT22;10115;50.906;4.438;2022-12-07T01:09:40;4.20;99.90
19906;DHT22;10115;50.906;4.438;2022-12-07T01:12:06;4.10;99.90
19906;DHT22;10115;50.906;4.438;2022-12-07T01:14:31;4.10;99.90
19906;DHT22;10115;50.906;4.438;2022-12-07T01:16:57;4.20;99.90
19906;DHT22;10115;50.906;4.438;2022-12-07T01:19:23;4.10;99.90
19906;DHT22;10115;50.906;4.438;2022-12-07T01:21:48;4.10;99.90
19906;DHT22;10115;50.906;4.438;2022-12-07T01:24:14;4.10;99.90
19906;DHT22;10115;50.906;4.438;2022-12-07T01:26:40;4.10;99.90
19906;DHT22;10115;50.906;4.438;2022-12-07T01:29:06;4.00;99.90
19906;DHT22;10115;50.906;4.438;2022-12-07T01:31:33;4.00;99.90
19906;DHT22;10115;50.906;4.438;2022-12-07T01:33:59;4.00;99.90
19906;DHT22;10115;50.906;4.438;2022-12-07T01:36:34;4.10;99.90
19906;DHT22;10115;50.906;4.438;2022-12-07T01:39:04;4.10;99.90
19906;DHT22;10115;50.906;4.438;2022-12-07T01:41:32;4.10;99.90
19906;DHT22;10115;50.906;4.438;2022-12-07T01:44:14;4.10;99.90
19906;DHT22;10115;50.906;4.438;2022-12-07T01:46:42;4.10;99.90
19906;DHT22;10115;50.906;4.438;2022-12-07T01:51:54;4.10;99.90
19906;DHT22;10115;50.906;4.438;2022-12-07T01:54:21;4.10;99.90
19906;DHT22;10115;50.906;4.438;2022-12-07T01:56:51;4.20;99.90
19906;DHT22;10115;50.906;4.438;2022-12-07T01:59:19;4.10;99.90
19906;DHT22;10115;50.906;4.438;2022-12-07T02:01:46;4.20;99.90
19906;DHT22;10115;50.906;4.438;2022-12-07T02:04:12;4.20;99.90
19906;DHT22;10115;50.906;4.438;2022-12-07T02:06:38;4.30;99.90
19906;DHT22;10115;50.906;4.438;2022-12-07T02:09:04;4.30;99.90
19906;DHT22;10115;50.906;4.438;2022-12-07T02:11:30;4.30;99.90
19906;DHT22;10115;50.906;4.438;2022-12-07T02:13:56;4.30;99.90
19906;DHT22;10115;50.906;4.438;2022-12-07T02:27:47;4.30;99.90
19906;DHT22;10115;50.906;4.438;2022-12-07T02:30:19;4.40;99.90
19906;DHT22;10115;50.906;4.438;2022-12-07T02:33:07;4.30;99.90
19906;DHT22;10115;50.906;4.438;2022-12-07T02:35:48;4.30;99.90
19906;DHT22;10115;50.906;4.438;2022-12-07T02:41:02;4.30;99.90
19906;DHT22;10115;50.906;4.438;2022-12-07T02:43:43;4.30;99.90
19906;DHT22;10115;50.906;4.438;2022-12-07T02:46:17;4.30;99.90
19906;DHT22;10115;50.906;4.438;2022-12-07T02:48:45;4.20;99.90
19906;DHT22;10115;50.906;4.438;2022-12-07T02:51:12;4.10;99.90
19906;DHT22;10115;50.906;4.438;2022-12-07T02:53:42;4.10;99.90
19906;DHT22;10115;50.906;4.438;2022-12-07T02:56:39;4.00;99.90
19906;DHT22;10115;50.906;4.438;2022-12-07T03:02:06;3.90;99.90
19906;DHT22;10115;50.906;4.438;2022-12-07T03:10:32;3.90;99.90
19906;DHT22;10115;50.906;4.438;2022-12-07T03:18:43;4.00;99.90
19906;DHT22;10115;50.906;4.438;2022-12-07T03:21:14;4.00;99.90
19906;DHT22;10115;50.906;4.438;2022-12-07T03:23:44;4.10;99.90
19906;DHT22;10115;50.906;4.438;2022-12-07T03:26:12;4.00;99.90
19906;DHT22;10115;50.906;4.438;2022-12-07T03:28:43;4.10;99.90
19906;DHT22;10115;50.906;4.438;2022-12-07T03:31:34;4.00;99.90
19906;DHT22;10115;50.906;4.438;2022-12-07T03:34:11;4.00;99.90
19906;DHT22;10115;50.906;4.438;2022-12-07T03:36:44;4.00;99.90
19906;DHT22;10115;50.906;4.438;2022-12-07T03:39:33;4.00;99.90
19906;DHT22;10115;50.906;4.438;2022-12-07T03:42:02;3.90;99.90
19906;DHT22;10115;50.906;4.438;2022-12-07T03:44:29;3.90;99.90
19906;DHT22;10115;50.906;4.438;2022-12-07T03:47:04;3.90;99.90
19906;DHT22;10115;50.906;4.438;2022-12-07T03:49:50;3.90;99.90
19906;DHT22;10115;50.906;4.438;2022-12-07T03:52:59;3.80;99.90
19906;DHT22;10115;50.906;4.438;2022-12-07T03:55:30;3.80;99.90
19906;DHT22;10115;50.906;4.438;2022-12-07T03:58:02;3.70;99.90
19906;DHT22;10115;50.906;4.438;2022-12-07T04:00:29;3.70;99.90
19906;DHT22;10115;50.906;4.438;2022-12-07T04:02:55;3.80;99.90
19906;DHT22;10115;50.906;4.438;2022-12-07T04:05:21;3.70;99.90
19906;DHT22;10115;50.906;4.438;2022-12-07T04:07:47;3.70;99.90
19906;DHT22;10115;50.906;4.438;2022-12-07T04:10:13;3.70;99.90
19906;DHT22;10115;50.906;4.438;2022-12-07T04:12:39;3.70;99.90
19906;DHT22;10115;50.906;4.438;2022-12-07T04:15:05;3.70;99.90
19906;DHT22;10115;50.906;4.438;2022-12-07T04:17:31;3.60;99.90
19906;DHT22;10115;50.906;4.438;2022-12-07T04:19:56;3.60;99.90
19906;DHT22;10115;50.906;4.438;2022-12-07T04:22:22;3.60;99.90
19906;DHT22;10115;50.906;4.438;2022-12-07T04:24:48;3.60;99.90
19906;DHT22;10115;50.906;4.438;2022-12-07T04:27:13;3.60;99.90
19906;DHT22;10115;50.906;4.438;2022-12-07T04:29:39;3.60;99.90
19906;DHT22;10115;50.906;4.438;2022-12-07T04:32:05;3.60;99.90
19906;DHT22;10115;50.906;4.438;2022-12-07T04:34:31;3.60;99.90
19906;DHT22;10115;50.906;4.438;2022-12-07T04:36:57;3.70;99.90
19906;DHT22;10115;50.906;4.438;2022-12-07T04:39:28;3.60;99.90
19906;DHT22;10115;50.906;4.438;2022-12-07T04:41:54;3.60;99.90
19906;DHT22;10115;50.906;4.438;2022-12-07T04:44:20;3.60;99.90
19906;DHT22;10115;50.906;4.438;2022-12-07T04:46:48;3.60;99.90
19906;DHT22;10115;50.906;4.438;2022-12-07T04:49:14;3.60;99.90
19906;DHT22;10115;50.906;4.438;2022-12-07T04:51:41;3.60;99.90
19906;DHT22;10115;50.906;4.438;2022-12-07T04:54:07;3.60;99.90
19906;DHT22;10115;50.906;4.438;2022-12-07T04:56:34;3.60;99.90
19906;DHT22;10115;50.906;4.438;2022-12-07T04:59:01;3.60;99.90
19906;DHT22;10115;50.906;4.438;2022-12-07T05:01:27;3.70;99.90
19906;DHT22;10115;50.906;4.438;2022-12-07T05:03:53;3.50;99.90
19906;DHT22;10115;50.906;4.438;2022-12-07T05:06:19;3.50;99.90
19906;DHT22;10115;50.906;4.438;2022-12-07T05:08:45;3.50;99.90
19906;DHT22;10115;50.906;4.438;2022-12-07T05:11:11;3.50;99.90
19906;DHT22;10115;50.906;4.438;2022-12-07T05:14:01;3.50;99.90
19906;DHT22;10115;50.906;4.438;2022-12-07T05:16:27;3.50;99.90
19906;DHT22;10115;50.906;4.438;2022-12-07T05:18:53;3.60;99.90
19906;DHT22;10115;50.906;4.438;2022-12-07T05:21:19;3.60;99.90
19906;DHT22;10115;50.906;4.438;2022-12-07T05:23:44;3.60;99.90
19906;DHT22;10115;50.906;4.438;2022-12-07T05:26:10;3.60;99.90
19906;DHT22;10115;50.906;4.438;2022-12-07T05:28:36;3.70;99.90
19906;DHT22;10115;50.906;4.438;2022-12-07T05:31:02;3.70;99.90
19906;DHT22;10115;50.906;4.438;2022-12-07T05:33:27;3.70;99.90
19906;DHT22;10115;50.906;4.438;2022-12-07T05:35:53;3.70;99.90
19906;DHT22;10115;50.906;4.438;2022-12-07T05:38:19;3.80;99.90
19906;DHT22;10115;50.906;4.438;2022-12-07T05:40:44;3.70;99.90
19906;DHT22;10115;50.906;4.438;2022-12-07T05:43:10;3.70;99.90
19906;DHT22;10115;50.906;4.438;2022-12-07T05:45:36;3.70;99.90
19906;DHT22;10115;50.906;4.438;2022-12-07T05:48:02;3.70;99.90
19906;DHT22;10115;50.906;4.438;2022-12-07T05:50:27;3.70;99.90
19906;DHT22;10115;50.906;4.438;2022-12-07T05:52:53;3.70;99.90
19906;DHT22;10115;50.906;4.438;2022-12-07T05:55:19;3.70;99.90
19906;DHT22;10115;50.906;4.438;2022-12-07T05:57:45;3.70;99.90
19906;DHT22;10115;50.906;4.438;2022-12-07T06:00:31;3.70;99.90
19906;DHT22;10115;50.906;4.438;2022-12-07T06:02:56;3.70;99.90
19906;DHT22;10115;50.906;4.438;2022-12-07T06:05:23;3.70;99.90
19906;DHT22;10115;50.906;4.438;2022-12-07T06:07:49;3.70;99.90
19906;DHT22;10115;50.906;4.438;2022-12-07T06:10:14;3.80;99.90
19906;DHT22;10115;50.906;4.438;2022-12-07T06:12:40;3.70;99.90
19906;DHT22;10115;50.906;4.438;2022-12-07T06:15:09;3.80;99.90
19906;DHT22;10115;50.906;4.438;2022-12-07T06:17:35;3.80;99.90
19906;DHT22;10115;50.906;4.438;2022-12-07T06:20:01;3.80;99.90
19906;DHT22;10115;50.906;4.438;2022-12-07T06:22:28;3.80;99.90
19906;DHT22;10115;50.906;4.438;2022-12-07T06:24:53;3.80;99.90
19906;DHT22;10115;50.906;4.438;2022-12-07T06:27:19;3.70;99.90
19906;DHT22;10115;50.906;4.438;2022-12-07T06:29:45;3.70;99.90
19906;DHT22;10115;50.906;4.438;2022-12-07T06:32:10;3.80;99.90
19906;DHT22;10115;50.906;4.438;2022-12-07T06:34:37;3.70;99.90
19906;DHT22;10115;50.906;4.438;2022-12-07T06:37:03;3.70;99.90
19906;DHT22;10115;50.906;4.438;2022-12-07T06:39:29;3.70;99.90
19906;DHT22;10115;50.906;4.438;2022-12-07T06:41:55;3.70;99.90
19906;DHT22;10115;50.906;4.438;2022-12-07T06:44:21;3.70;99.90
19906;DHT22;10115;50.906;4.438;2022-12-07T06:46:48;3.70;99.90
19906;DHT22;10115;50.906;4.438;2022-12-07T06:49:14;3.80;99.90
19906;DHT22;10115;50.906;4.438;2022-12-07T06:51:40;3.90;99.90
19906;DHT22;10115;50.906;4.438;2022-12-07T06:54:13;3.80;99.90
19906;DHT22;10115;50.906;4.438;2022-12-07T06:56:39;3.80;99.90
19906;DHT22;10115;50.906;4.438;2022-12-07T06:59:07;3.90;99.90
19906;DHT22;10115;50.906;4.438;2022-12-07T07:01:33;3.90;99.90
19906;DHT22;10115;50.906;4.438;2022-12-07T07:04:00;3.90;99.90
19906;DHT22;10115;50.906;4.438;2022-12-07T07:06:26;3.80;99.90
19906;DHT22;10115;50.906;4.438;2022-12-07T07:08:52;3.80;99.90
19906;DHT22;10115;50.906;4.438;2022-12-07T07:11:18;3.80;99.90
19906;DHT22;10115;50.906;4.438;2022-12-07T07:13:44;3.80;99.90
19906;DHT22;10115;50.906;4.438;2022-12-07T07:16:10;3.80;99.90
19906;DHT22;10115;50.906;4.438;2022-12-07T07:18:36;3.80;99.90
19906;DHT22;10115;50.906;4.438;2022-12-07T07:21:02;3.80;99.90
19906;DHT22;10115;50.906;4.438;2022-12-07T07:23:28;3.70;99.90
19906;DHT22;10115;50.906;4.438;2022-12-07T07:25:54;3.70;99.90
19906;DHT22;10115;50.906;4.438;2022-12-07T07:28:20;3.70;99.90
19906;DHT22;10115;50.906;4.438;2022-12-07T07:30:45;3.70;99.90
19906;DHT22;10115;50.906;4.438;2022-12-07T07:33:12;3.80;99.90
19906;DHT22;10115;50.906;4.438;2022-12-07T07:35:38;3.70;99.90
19906;DHT22;10115;50.906;4.438;2022-12-07T07:38:04;3.60;99.90
19906;DHT22;10115;50.906;4.438;2022-12-07T07:40:30;3.60;99.90
19906;DHT22;10115;50.906;4.438;2022-12-07T07:42:57;3.60;99.90
19906;DHT22;10115;50.906;4.438;2022-12-07T07:45:24;3.50;99.90
19906;DHT22;10115;50.906;4.438;2022-12-07T07:47:50;3.50;99.90
19906;DHT22;10115;50.906;4.438;2022-12-07T07:50:17;3.50;99.90
19906;DHT22;10115;50.906;4.438;2022-12-07T07:52:44;3.50;99.90
19906;DHT22;10115;50.906;4.438;2022-12-07T07:55:10;3.50;99.90
19906;DHT22;10115;50.906;4.438;2022-12-07T07:57:36;3.50;99.90
19906;DHT22;10115;50.906;4.438;2022-12-07T08:00:13;3.50;99.90
19906;DHT22;10115;50.906;4.438;2022-12-07T08:02:40;3.50;99.90
19906;DHT22;10115;50.906;4.438;2022-12-07T08:05:06;3.50;99.90
19906;DHT22;10115;50.906;4.438;2022-12-07T08:07:32;3.50;99.90
19906;DHT22;10115;50.906;4.438;2022-12-07T08:09:58;3.50;99.90
19906;DHT22;10115;50.906;4.438;2022-12-07T08:12:24;3.50;99.90
19906;DHT22;10115;50.906;4.438;2022-12-07T08:14:49;3.50;99.90
19906;DHT22;10115;50.906;4.438;2022-12-07T08:17:15;3.50;99.90
19906;DHT22;10115;50.906;4.438;2022-12-07T08:19:42;3.50;99.90
19906;DHT22;10115;50.906;4.438;2022-12-07T08:22:07;3.50;99.90
19906;DHT22;10115;50.906;4.438;2022-12-07T08:24:34;3.50;99.90
19906;DHT22;10115;50.906;4.438;2022-12-07T08:27:00;3.60;99.90
19906;DHT22;10115;50.906;4.438;2022-12-07T08:29:25;3.60;99.90
19906;DHT22;10115;50.906;4.438;2022-12-07T08:31:51;3.60;99.90
19906;DHT22;10115;50.906;4.438;2022-12-07T08:34:17;3.70;99.90
19906;DHT22;10115;50.906;4.438;2022-12-07T08:36:42;3.70;99.90
19906;DHT22;10115;50.906;4.438;2022-12-07T08:39:08;3.70;99.90
19906;DHT22;10115;50.906;4.438;2022-12-07T08:41:34;3.80;99.90
19906;DHT22;10115;50.906;4.438;2022-12-07T08:44:00;3.80;99.90
19906;DHT22;10115;50.906;4.438;2022-12-07T08:46:34;3.80;99.90
19906;DHT22;10115;50.906;4.438;2022-12-07T08:49:11;3.90;99.90
19906;DHT22;10115;50.906;4.438;2022-12-07T08:51:38;4.00;99.90
19906;DHT22;10115;50.906;4.438;2022-12-07T08:54:06;4.10;99.90
19906;DHT22;10115;50.906;4.438;2022-12-07T08:56:33;4.10;99.90
19906;DHT22;10115;50.906;4.438;2022-12-07T08:58:59;4.20;99.90
19906;DHT22;10115;50.906;4.438;2022-12-07T09:01:25;4.30;99.90
19906;DHT22;10115;50.906;4.438;2022-12-07T09:03:51;4.30;99.90
19906;DHT22;10115;50.906;4.438;2022-12-07T09:06:16;4.40;99.90
19906;DHT22;10115;50.906;4.438;2022-12-07T09:08:47;4.40;99.90
19906;DHT22;10115;50.906;4.438;2022-12-07T09:11:13;4.50;99.90
19906;DHT22;10115;50.906;4.438;2022-12-07T09:13:39;4.50;99.90
19906;DHT22;10115;50.906;4.438;2022-12-07T09:16:05;4.60;99.90
19906;DHT22;10115;50.906;4.438;2022-12-07T09:18:30;4.70;99.90
19906;DHT22;10115;50.906;4.438;2022-12-07T09:20:56;4.70;99.90
19906;DHT22;10115;50.906;4.438;2022-12-07T09:23:22;4.70;99.90
19906;DHT22;10115;50.906;4.438;2022-12-07T09:25:48;4.70;99.90
19906;DHT22;10115;50.906;4.438;2022-12-07T09:28:14;4.70;99.90
19906;DHT22;10115;50.906;4.438;2022-12-07T09:30:48;4.70;99.90
19906;DHT22;10115;50.906;4.438;2022-12-07T09:33:14;4.70;99.90
19906;DHT22;10115;50.906;4.438;2022-12-07T09:35:47;4.70;99.90
19906;DHT22;10115;50.906;4.438;2022-12-07T09:38:13;4.70;99.90
19906;DHT22;10115;50.906;4.438;2022-12-07T09:40:39;4.70;99.90
19906;DHT22;10115;50.906;4.438;2022-12-07T09:43:12;4.80;99.90
19906;DHT22;10115;50.906;4.438;2022-12-07T09:45:39;4.80;99.90
19906;DHT22;10115;50.906;4.438;2022-12-07T09:48:05;4.90;99.90
19906;DHT22;10115;50.906;4.438;2022-12-07T09:50:34;4.90;99.90
19906;DHT22;10115;50.906;4.438;2022-12-07T09:53:34;5.00;99.90
19906;DHT22;10115;50.906;4.438;2022-12-07T09:55:59;5.10;99.90
19906;DHT22;10115;50.906;4.438;2022-12-07T09:58:27;5.10;99.90
19906;DHT22;10115;50.906;4.438;2022-12-07T10:03:39;5.30;99.90
19906;DHT22;10115;50.906;4.438;2022-12-07T10:06:06;5.30;99.90
19906;DHT22;10115;50.906;4.438;2022-12-07T10:08:33;5.40;99.90
19906;DHT22;10115;50.906;4.438;2022-12-07T10:11:01;5.40;99.90
19906;DHT22;10115;50.906;4.438;2022-12-07T10:16:06;5.50;99.90
19906;DHT22;10115;50.906;4.438;2022-12-07T10:18:37;5.40;99.90
19906;DHT22;10115;50.906;4.438;2022-12-07T10:23:57;5.50;99.90
19906;DHT22;10115;50.906;4.438;2022-12-07T10:28:56;5.50;99.90
19906;DHT22;10115;50.906;4.438;2022-12-07T10:31:24;5.40;99.90
19906;DHT22;10115;50.906;4.438;2022-12-07T10:33:57;5.40;99.90
19906;DHT22;10115;50.906;4.438;2022-12-07T10:39:13;5.40;99.90
19906;DHT22;10115;50.906;4.438;2022-12-07T10:41:59;5.40;99.90
19906;DHT22;10115;50.906;4.438;2022-12-07T10:44:27;5.40;99.90
19906;DHT22;10115;50.906;4.438;2022-12-07T10:47:20;5.40;99.90
19906;DHT22;10115;50.906;4.438;2022-12-07T11:15:49;5.90;99.90
19906;DHT22;10115;50.906;4.438;2022-12-07T11:18:21;5.90;99.90
19906;DHT22;10115;50.906;4.438;2022-12-07T11:20:53;5.90;99.90
19906;DHT22;10115;50.906;4.438;2022-12-07T11:31:31;6.10;99.90
19906;DHT22;10115;50.906;4.438;2022-12-07T11:34:22;6.10;99.90
19906;DHT22;10115;50.906;4.438;2022-12-07T11:36:53;6.10;99.90
19906;DHT22;10115;50.906;4.438;2022-12-07T11:39:34;6.10;99.90
19906;DHT22;10115;50.906;4.438;2022-12-07T11:42:21;6.20;99.90
19906;DHT22;10115;50.906;4.438;2022-12-07T11:44:53;6.20;99.90
19906;DHT22;10115;50.906;4.438;2022-12-07T11:47:27;6.30;99.90
19906;DHT22;10115;50.906;4.438;2022-12-07T11:50:13;6.40;99.90
19906;DHT22;10115;50.906;4.438;2022-12-07T11:52:51;6.50;99.90
19906;DHT22;10115;50.906;4.438;2022-12-07T11:55:40;6.50;99.90
19906;DHT22;10115;50.906;4.438;2022-12-07T12:06:22;6.70;99.90
19906;DHT22;10115;50.906;4.438;2022-12-07T12:11:52;6.80;99.90
19906;DHT22;10115;50.906;4.438;2022-12-07T12:22:53;6.60;99.90
19906;DHT22;10115;50.906;4.438;2022-12-07T12:33:38;6.60;99.90
19906;DHT22;10115;50.906;4.438;2022-12-07T12:47:02;6.60;99.90
19906;DHT22;10115;50.906;4.438;2022-12-07T12:51:58;6.70;99.90
19906;DHT22;10115;50.906;4.438;2022-12-07T12:54:27;6.70;99.90
19906;DHT22;10115;50.906;4.438;2022-12-07T12:59:59;6.90;99.90
19906;DHT22;10115;50.906;4.438;2022-12-07T13:02:47;6.90;99.90
19906;DHT22;10115;50.906;4.438;2022-12-07T13:20:57;6.80;99.90
19906;DHT22;10115;50.906;4.438;2022-12-07T13:29:18;6.90;99.90
19906;DHT22;10115;50.906;4.438;2022-12-07T13:31:50;6.90;99.90
19906;DHT22;10115;50.906;4.438;2022-12-07T13:34:37;6.90;99.90
19906;DHT22;10115;50.906;4.438;2022-12-07T13:37:25;7.00;99.90
19906;DHT22;10115;50.906;4.438;2022-12-07T13:39:59;6.90;99.90
19906;DHT22;10115;50.906;4.438;2022-12-07T13:42:31;7.00;99.90
19906;DHT22;10115;50.906;4.438;2022-12-07T13:45:00;7.00;99.90
19906;DHT22;10115;50.906;4.438;2022-12-07T13:49:54;7.10;99.90
19906;DHT22;10115;50.906;4.438;2022-12-07T13:52:24;7.10;99.90
19906;DHT22;10115;50.906;4.438;2022-12-07T13:54:55;7.10;99.90
19906;DHT22;10115;50.906;4.438;2022-12-07T13:57:22;7.00;99.90
19906;DHT22;10115;50.906;4.438;2022-12-07T13:59:49;6.90;99.90
19906;DHT22;10115;50.906;4.438;2022-12-07T14:03:04;6.90;99.90
19906;DHT22;10115;50.906;4.438;2022-12-07T14:05:35;6.80;99.90
19906;DHT22;10115;50.906;4.438;2022-12-07T14:08:20;6.50;99.90
19906;DHT22;10115;50.906;4.438;2022-12-07T14:13:38;6.10;99.90
19906;DHT22;10115;50.906;4.438;2022-12-07T14:16:33;5.90;99.90
19906;DHT22;10115;50.906;4.438;2022-12-07T14:19:05;5.70;99.90
19906;DHT22;10115;50.906;4.438;2022-12-07T14:21:34;5.70;99.90
19906;DHT22;10115;50.906;4.438;2022-12-07T14:24:12;5.60;99.90
19906;DHT22;10115;50.906;4.438;2022-12-07T14:26:41;5.60;99.90
19906;DHT22;10115;50.906;4.438;2022-12-07T14:31:56;5.50;99.90
19906;DHT22;10115;50.906;4.438;2022-12-07T14:34:23;5.50;99.90
19906;DHT22;10115;50.906;4.438;2022-12-07T14:36:49;5.40;99.90
19906;DHT22;10115;50.906;4.438;2022-12-07T14:39:15;5.40;99.90
19906;DHT22;10115;50.906;4.438;2022-12-07T14:41:42;5.50;99.90
19906;DHT22;10115;50.906;4.438;2022-12-07T14:44:24;5.60;99.90
19906;DHT22;10115;50.906;4.438;2022-12-07T14:46:50;5.50;99.90
19906;DHT22;10115;50.906;4.438;2022-12-07T14:49:18;5.60;99.90
19906;DHT22;10115;50.906;4.438;2022-12-07T14:51:45;5.60;99.90
19906;DHT22;10115;50.906;4.438;2022-12-07T14:54:17;5.60;99.90
19906;DHT22;10115;50.906;4.438;2022-12-07T14:56:44;5.60;99.90
19906;DHT22;10115;50.906;4.438;2022-12-07T14:59:11;5.60;99.90
19906;DHT22;10115;50.906;4.438;2022-12-07T15:01:38;5.60;99.90
19906;DHT22;10115;50.906;4.438;2022-12-07T15:04:04;5.60;99.90
19906;DHT22;10115;50.906;4.438;2022-12-07T15:06:30;5.60;99.90
19906;DHT22;10115;50.906;4.438;2022-12-07T15:08:56;5.60;99.90
19906;DHT22;10115;50.906;4.438;2022-12-07T15:11:22;5.60;99.90
19906;DHT22;10115;50.906;4.438;2022-12-07T15:13:47;5.60;99.90
19906;DHT22;10115;50.906;4.438;2022-12-07T15:16:32;5.60;99.90
19906;DHT22;10115;50.906;4.438;2022-12-07T15:18:58;5.60;99.90
19906;DHT22;10115;50.906;4.438;2022-12-07T15:21:23;5.60;99.90
19906;DHT22;10115;50.906;4.438;2022-12-07T15:23:49;5.60;99.90
19906;DHT22;10115;50.906;4.438;2022-12-07T15:26:15;5.60;99.90
19906;DHT22;10115;50.906;4.438;2022-12-07T15:28:41;5.60;99.90
19906;DHT22;10115;50.906;4.438;2022-12-07T15:31:15;5.60;99.90
19906;DHT22;10115;50.906;4.438;2022-12-07T15:33:42;5.60;99.90
19906;DHT22;10115;50.906;4.438;2022-12-07T15:36:08;5.60;99.90
19906;DHT22;10115;50.906;4.438;2022-12-07T15:38:35;5.60;99.90
19906;DHT22;10115;50.906;4.438;2022-12-07T15:41:01;5.60;99.90
19906;DHT22;10115;50.906;4.438;2022-12-07T15:43:27;5.60;99.90
19906;DHT22;10115;50.906;4.438;2022-12-07T15:46:11;5.50;99.90
19906;DHT22;10115;50.906;4.438;2022-12-07T15:48:37;5.50;99.90
19906;DHT22;10115;50.906;4.438;2022-12-07T15:51:08;5.50;99.90
19906;DHT22;10115;50.906;4.438;2022-12-07T15:53:34;5.50;99.90
19906;DHT22;10115;50.906;4.438;2022-12-07T15:56:01;5.50;99.90
19906;DHT22;10115;50.906;4.438;2022-12-07T15:58:31;5.50;99.90
19906;DHT22;10115;50.906;4.438;2022-12-07T16:00:57;5.40;99.90
19906;DHT22;10115;50.906;4.438;2022-12-07T16:03:22;5.40;99.90
19906;DHT22;10115;50.906;4.438;2022-12-07T16:05:49;5.40;99.90
19906;DHT22;10115;50.906;4.438;2022-12-07T16:08:15;5.40;99.90
19906;DHT22;10115;50.906;4.438;2022-12-07T16:10:41;5.40;99.90
19906;DHT22;10115;50.906;4.438;2022-12-07T16:13:10;5.40;99.90
19906;DHT22;10115;50.906;4.438;2022-12-07T16:15:42;5.40;99.90
19906;DHT22;10115;50.906;4.438;2022-12-07T16:18:09;5.40;99.90
19906;DHT22;10115;50.906;4.438;2022-12-07T16:20:34;5.40;99.90
19906;DHT22;10115;50.906;4.438;2022-12-07T16:23:00;5.40;99.90
19906;DHT22;10115;50.906;4.438;2022-12-07T16:25:27;5.40;99.90
19906;DHT22;10115;50.906;4.438;2022-12-07T16:27:53;5.30;99.90
19906;DHT22;10115;50.906;4.438;2022-12-07T16:30:19;5.30;99.90
19906;DHT22;10115;50.906;4.438;2022-12-07T16:32:45;5.30;99.90
19906;DHT22;10115;50.906;4.438;2022-12-07T16:35:12;6.50;99.90
19906;DHT22;10115;50.906;4.438;2022-12-07T16:37:43;6.00;99.90
19906;DHT22;10115;50.906;4.438;2022-12-07T16:40:10;5.60;99.90
19906;DHT22;10115;50.906;4.438;2022-12-07T16:42:36;5.40;99.90
19906;DHT22;10115;50.906;4.438;2022-12-07T16:45:02;5.40;99.90
19906;DHT22;10115;50.906;4.438;2022-12-07T16:47:28;5.30;99.90
19906;DHT22;10115;50.906;4.438;2022-12-07T16:49:54;5.30;99.90
19906;DHT22;10115;50.906;4.438;2022-12-07T16:52:21;5.30;99.90
19906;DHT22;10115;50.906;4.438;2022-12-07T16:54:48;5.30;99.90
19906;DHT22;10115;50.906;4.438;2022-12-07T16:57:15;5.30;99.90
19906;DHT22;10115;50.906;4.438;2022-12-07T16:59:40;5.30;99.90
19906;DHT22;10115;50.906;4.438;2022-12-07T17:02:08;5.30;99.90
19906;DHT22;10115;50.906;4.438;2022-12-07T17:04:34;5.30;99.90
19906;DHT22;10115;50.906;4.438;2022-12-07T17:07:00;5.30;99.90
19906;DHT22;10115;50.906;4.438;2022-12-07T17:09:26;5.20;99.90
19906;DHT22;10115;50.906;4.438;2022-12-07T17:11:51;5.20;99.90
19906;DHT22;10115;50.906;4.438;2022-12-07T17:14:17;5.20;99.90
19906;DHT22;10115;50.906;4.438;2022-12-07T17:17:02;5.20;99.90
19906;DHT22;10115;50.906;4.438;2022-12-07T17:19:28;5.20;99.90
19906;DHT22;10115;50.906;4.438;2022-12-07T17:21:54;5.20;99.90
19906;DHT22;10115;50.906;4.438;2022-12-07T17:24:19;5.20;99.90
19906;DHT22;10115;50.906;4.438;2022-12-07T17:26:45;5.10;99.90
19906;DHT22;10115;50.906;4.438;2022-12-07T17:29:13;5.20;99.90
19906;DHT22;10115;50.906;4.438;2022-12-07T17:31:39;5.10;99.90
19906;DHT22;10115;50.906;4.438;2022-12-07T17:34:10;5.10;99.90
19906;DHT22;10115;50.906;4.438;2022-12-07T17:36:37;5.20;99.90
19906;DHT22;10115;50.906;4.438;2022-12-07T17:39:10;5.10;99.90
19906;DHT22;10115;50.906;4.438;2022-12-07T17:41:37;5.10;99.90
19906;DHT22;10115;50.906;4.438;2022-12-07T17:44:21;5.10;99.90
19906;DHT22;10115;50.906;4.438;2022-12-07T17:46:50;5.10;99.90
19906;DHT22;10115;50.906;4.438;2022-12-07T17:49:20;5.10;99.90
19906;DHT22;10115;50.906;4.438;2022-12-07T17:51:46;5.10;99.90
19906;DHT22;10115;50.906;4.438;2022-12-07T17:54:30;5.10;99.90
19906;DHT22;10115;50.906;4.438;2022-12-07T17:56:56;5.10;99.90
19906;DHT22;10115;50.906;4.438;2022-12-07T17:59:22;5.10;99.90
19906;DHT22;10115;50.906;4.438;2022-12-07T18:01:47;5.10;99.90
19906;DHT22;10115;50.906;4.438;2022-12-07T18:04:13;5.10;99.90
19906;DHT22;10115;50.906;4.438;2022-12-07T18:06:39;5.10;99.90
19906;DHT22;10115;50.906;4.438;2022-12-07T18:09:05;5.10;99.90
19906;DHT22;10115;50.906;4.438;2022-12-07T18:11:32;5.10;99.90
19906;DHT22;10115;50.906;4.438;2022-12-07T18:13:58;5.00;99.90
19906;DHT22;10115;50.906;4.438;2022-12-07T18:16:25;5.00;99.90
19906;DHT22;10115;50.906;4.438;2022-12-07T18:18:52;5.00;99.90
19906;DHT22;10115;50.906;4.438;2022-12-07T18:21:22;5.00;99.90
19906;DHT22;10115;50.906;4.438;2022-12-07T18:23:50;4.90;99.90
19906;DHT22;10115;50.906;4.438;2022-12-07T18:26:18;4.90;99.90
19906;DHT22;10115;50.906;4.438;2022-12-07T18:28:44;4.90;99.90